Temp: 17.4°C   Baro: 1015.3mb
  Wind: 14.1mph   Dir: WNW (303°)
  Rain: 9.6mm (0.0mm/hr)
  Solar: 773W/m2  Hum: 67%
 
Bath Spa Weather Historical Data
Daily Summary for July 4, 2019 Units:  Metric    English   Both
Next Day »
Daily Weekly Monthly Yearly Custom
  High: Low: Average:
Temperature: 24.8 °C 10.7 °C 18.5 °C
Dew Point: 13.9 °C 7.9 °C 10.8 °C
Humidity: 85% 41% 62%
Wind Speed: 14.5km/h 0.0km/h 2.8km/h
Wind Gust: 14.5km/h - -
Wind direction- - SW
Pressure: 1027.0 hPa 1021.2 hPa -
Precipitation: 0.0 mm    
Historical Graphs
 
 
Tabular Data for July 4, 2019
Time Temperature Dew Point Pressure Wind direction Wind Speed Wind Gust Humidity Rainfall Rate (Hourly) solar
00:04 15.9 °C 10.4 °C 1026.3 hPa Calm   6.4 km/h 70% 0.0 mm 0.00 W/m2
00:09 15.9 °C 10.4 °C 1026.3 hPa Calm   4.8 km/h 70% 0.0 mm 0.00 W/m2
00:14 15.9 °C 10.4 °C 1026.3 hPa ENE 3.2 km/h 11.3 km/h 70% 0.0 mm 0.00 W/m2
00:19 15.9 °C 10.6 °C 1026.3 hPa Calm   4.8 km/h 71% 0.0 mm 0.00 W/m2
00:24 15.9 °C 10.6 °C 1026.3 hPa Calm   1.6 km/h 71% 0.0 mm 0.00 W/m2
00:29 15.9 °C 10.6 °C 1026.3 hPa ENE 3.2 km/h 8.0 km/h 71% 0.0 mm 0.00 W/m2
00:34 15.8 °C 10.6 °C 1026.3 hPa ENE 7.9 km/h 8.0 km/h 71% 0.0 mm 0.00 W/m2
00:39 15.8 °C 10.6 °C 1026.3 hPa Calm   1.6 km/h 71% 0.0 mm 0.00 W/m2
00:44 15.8 °C 10.6 °C 1026.3 hPa ENE 3.2 km/h 9.7 km/h 71% 0.0 mm 0.00 W/m2
00:49 15.7 °C 10.7 °C 1026.3 hPa NE 4.7 km/h 8.0 km/h 72% 0.0 mm 0.00 W/m2
00:54 15.7 °C 10.7 °C 1026.3 hPa Calm   8.0 km/h 72% 0.0 mm 0.00 W/m2
00:59 15.7 °C 10.7 °C 1026.3 hPa ENE 3.2 km/h 3.2 km/h 72% 0.0 mm 0.00 W/m2
01:04 15.7 °C 10.7 °C 1026.3 hPa Calm   4.8 km/h 72% 0.0 mm 0.00 W/m2
01:09 15.5 °C 10.5 °C 1026.3 hPa Calm     72% 0.0 mm 0.00 W/m2
01:14 15.5 °C 10.5 °C 1026.6 hPa Calm     72% 0.0 mm 0.00 W/m2
01:19 15.3 °C 10.3 °C 1026.6 hPa ENE 1.4 km/h 3.2 km/h 72% 0.0 mm 0.00 W/m2
01:24 15.2 °C 10.2 °C 1026.3 hPa ENE 1.4 km/h 3.2 km/h 72% 0.0 mm 0.00 W/m2
01:29 15.2 °C 10.4 °C 1026.6 hPa Calm   1.6 km/h 73% 0.0 mm 0.00 W/m2
01:34 15.1 °C 10.3 °C 1026.6 hPa ENE 3.2 km/h 4.8 km/h 73% 0.0 mm 0.00 W/m2
01:39 15.0 °C 10.2 °C 1026.6 hPa ENE 3.2 km/h 4.8 km/h 73% 0.0 mm 0.00 W/m2
01:44 14.9 °C 10.1 °C 1026.6 hPa ENE 3.2 km/h 4.8 km/h 73% 0.0 mm 0.00 W/m2
01:49 14.8 °C 10.0 °C 1026.6 hPa ESE 4.7 km/h 11.3 km/h 73% 0.0 mm 0.00 W/m2
01:54 14.8 °C 10.0 °C 1026.6 hPa Calm   1.6 km/h 73% 0.0 mm 0.00 W/m2
01:59 14.7 °C 9.9 °C 1026.6 hPa Calm   3.2 km/h 73% 0.0 mm 0.00 W/m2
02:04 14.5 °C 9.9 °C 1026.6 hPa ESE 1.4 km/h 3.2 km/h 74% 0.0 mm 0.00 W/m2
02:09 14.4 °C 9.8 °C 1026.6 hPa Calm   9.7 km/h 74% 0.0 mm 0.00 W/m2
02:14 14.3 °C 9.7 °C 1026.6 hPa East 1.4 km/h 11.3 km/h 74% 0.0 mm 0.00 W/m2
02:19 14.2 °C 9.6 °C 1026.6 hPa Calm   8.0 km/h 74% 0.0 mm 0.00 W/m2
02:24 14.1 °C 9.5 °C 1026.6 hPa ESE 1.4 km/h 3.2 km/h 74% 0.0 mm 0.00 W/m2
02:29 14.0 °C 9.4 °C 1026.6 hPa ESE 1.4 km/h 6.4 km/h 74% 0.0 mm 0.00 W/m2
02:34 14.0 °C 9.6 °C 1026.6 hPa East 1.4 km/h 6.4 km/h 75% 0.0 mm 0.00 W/m2
02:39 13.9 °C 9.5 °C 1026.6 hPa Calm   3.2 km/h 75% 0.0 mm 0.00 W/m2
02:44 13.8 °C 9.4 °C 1026.6 hPa Calm   4.8 km/h 75% 0.0 mm 0.00 W/m2
02:49 13.8 °C 9.4 °C 1026.6 hPa East 4.7 km/h 4.8 km/h 75% 0.0 mm 0.00 W/m2
02:54 13.7 °C 9.3 °C 1026.6 hPa East 1.4 km/h 3.2 km/h 75% 0.0 mm 0.00 W/m2
02:59 13.6 °C 9.3 °C 1026.6 hPa Calm   8.0 km/h 75% 0.0 mm 0.00 W/m2
03:04 13.5 °C 9.2 °C 1026.6 hPa ESE 1.4 km/h 3.2 km/h 75% 0.0 mm 0.00 W/m2
03:09 13.4 °C 9.1 °C 1026.6 hPa ESE 1.4 km/h 1.6 km/h 75% 0.0 mm 0.00 W/m2
03:14 13.4 °C 9.1 °C 1026.6 hPa Calm   1.6 km/h 75% 0.0 mm 0.00 W/m2
03:19 13.4 °C 9.1 °C 1026.6 hPa Calm     75% 0.0 mm 0.00 W/m2
03:24 13.3 °C 9.0 °C 1026.6 hPa Calm     75% 0.0 mm 0.00 W/m2
03:29 13.1 °C 9.0 °C 1026.6 hPa Calm     76% 0.0 mm 0.00 W/m2
03:34 13.0 °C 8.9 °C 1026.6 hPa Calm     76% 0.0 mm 0.00 W/m2
03:39 12.9 °C 8.8 °C 1026.6 hPa Calm     76% 0.0 mm 0.00 W/m2
03:44 12.9 °C 8.8 °C 1026.6 hPa Calm     76% 0.0 mm 0.00 W/m2
03:49 12.8 °C 8.7 °C 1026.6 hPa Calm     76% 0.0 mm 0.00 W/m2
03:54 12.8 °C 8.9 °C 1026.6 hPa Calm     77% 0.0 mm 0.00 W/m2
03:59 12.6 °C 8.7 °C 1026.6 hPa Calm     77% 0.0 mm 0.00 W/m2
04:04 12.5 °C 8.6 °C 1026.6 hPa Calm     77% 0.0 mm 0.00 W/m2
04:09 12.4 °C 8.7 °C 1026.6 hPa Calm     78% 0.0 mm 0.00 W/m2
04:14 12.3 °C 8.6 °C 1026.6 hPa Calm     78% 0.0 mm 0.00 W/m2
04:19 12.2 °C 8.5 °C 1026.6 hPa Calm     78% 0.0 mm 0.00 W/m2
04:24 11.9 °C 8.4 °C 1026.6 hPa Calm     79% 0.0 mm 0.00 W/m2
04:29 11.7 °C 8.4 °C 1026.6 hPa Calm     80% 0.0 mm 0.00 W/m2
04:34 11.6 °C 8.3 °C 1026.6 hPa Calm     80% 0.0 mm 0.00 W/m2
04:39 11.6 °C 8.5 °C 1026.6 hPa Calm     81% 0.0 mm 0.00 W/m2
04:44 11.5 °C 8.4 °C 1026.6 hPa Calm     81% 0.0 mm 0.00 W/m2
04:49 11.5 °C 8.4 °C 1026.6 hPa Calm     81% 0.0 mm 0.00 W/m2
04:54 11.5 °C 8.4 °C 1026.6 hPa Calm     81% 0.0 mm 0.00 W/m2
04:59 11.4 °C 8.3 °C 1026.6 hPa Calm     81% 0.0 mm 0.00 W/m2
05:04 11.3 °C 8.3 °C 1026.6 hPa Calm     82% 0.0 mm 5.00 W/m2
05:09 11.2 °C 8.2 °C 1026.6 hPa Calm     82% 0.0 mm 7.00 W/m2
05:14 11.0 °C 8.0 °C 1026.6 hPa Calm     82% 0.0 mm 9.00 W/m2
05:19 10.9 °C 8.1 °C 1026.6 hPa Calm     83% 0.0 mm 11.00 W/m2
05:24 10.8 °C 8.0 °C 1026.6 hPa Calm     83% 0.0 mm 12.00 W/m2
05:29 10.7 °C 7.9 °C 1026.6 hPa Calm     83% 0.0 mm 12.00 W/m2
05:34 10.7 °C 8.1 °C 1026.6 hPa Calm     84% 0.0 mm 14.00 W/m2
05:39 10.8 °C 8.2 °C 1026.6 hPa Calm     84% 0.0 mm 16.00 W/m2
05:44 10.9 °C 8.5 °C 1026.6 hPa Calm     85% 0.0 mm 18.00 W/m2
05:49 11.0 °C 8.6 °C 1026.6 hPa Calm     85% 0.0 mm 19.00 W/m2
05:54 11.2 °C 8.8 °C 1026.6 hPa Calm     85% 0.0 mm 21.00 W/m2
05:59 11.3 °C 8.7 °C 1026.6 hPa Calm     84% 0.0 mm 21.00 W/m2
06:04 11.4 °C 8.8 °C 1026.6 hPa Calm     84% 0.0 mm 23.00 W/m2
06:09 11.3 °C 8.7 °C 1026.6 hPa Calm     84% 0.0 mm 25.00 W/m2
06:14 11.3 °C 8.7 °C 1026.6 hPa Calm     84% 0.0 mm 26.00 W/m2
06:19 11.3 °C 8.7 °C 1026.6 hPa Calm     84% 0.0 mm 28.00 W/m2
06:24 11.3 °C 8.7 °C 1026.6 hPa Calm     84% 0.0 mm 28.00 W/m2
06:29 11.3 °C 8.7 °C 1026.6 hPa Calm     84% 0.0 mm 32.00 W/m2
06:34 11.3 °C 8.7 °C 1026.6 hPa Calm     84% 0.0 mm 37.00 W/m2
06:39 11.5 °C 8.9 °C 1026.6 hPa Calm     84% 0.0 mm 46.00 W/m2
06:44 11.7 °C 9.1 °C 1026.6 hPa Calm     84% 0.0 mm 58.00 W/m2
06:49 12.1 °C 9.7 °C 1027.0 hPa Calm     85% 0.0 mm 72.00 W/m2
06:54 12.4 °C 9.8 °C 1026.6 hPa Calm     84% 0.0 mm 86.00 W/m2
06:59 12.7 °C 9.9 °C 1026.6 hPa Calm     83% 0.0 mm 98.00 W/m2
07:04 13.0 °C 10.2 °C 1026.6 hPa Calm     83% 0.0 mm 116.00 W/m2
07:09 13.3 °C 10.3 °C 1027.0 hPa Calm     82% 0.0 mm 134.00 W/m2
07:14 13.6 °C 10.4 °C 1027.0 hPa Calm     81% 0.0 mm 149.00 W/m2
07:19 13.9 °C 10.5 °C 1027.0 hPa Calm     80% 0.0 mm 167.00 W/m2
07:24 14.0 °C 10.2 °C 1027.0 hPa Calm     78% 0.0 mm 183.00 W/m2
07:29 14.3 °C 10.3 °C 1027.0 hPa Calm   1.6 km/h 77% 0.0 mm 199.00 W/m2
07:34 14.5 °C 10.3 °C 1027.0 hPa Calm     76% 0.0 mm 213.00 W/m2
07:39 14.5 °C 10.1 °C 1027.0 hPa Calm     75% 0.0 mm 229.00 W/m2
07:44 14.5 °C 9.7 °C 1026.6 hPa Calm     73% 0.0 mm 244.00 W/m2
07:49 14.4 °C 9.4 °C 1026.6 hPa Calm     72% 0.0 mm 260.00 W/m2
07:54 14.4 °C 9.4 °C 1026.6 hPa Calm     72% 0.0 mm 276.00 W/m2
07:59 14.5 °C 9.5 °C 1026.6 hPa Calm     72% 0.0 mm 292.00 W/m2
08:04 14.8 °C 9.8 °C 1027.0 hPa ESE 1.4 km/h 1.6 km/h 72% 0.0 mm 309.00 W/m2
08:09 14.9 °C 9.7 °C 1027.0 hPa ESE 3.2 km/h 3.2 km/h 71% 0.0 mm 322.00 W/m2
08:14 14.9 °C 9.3 °C 1026.6 hPa Calm     69% 0.0 mm 338.00 W/m2
08:19 15.0 °C 9.4 °C 1026.6 hPa Calm   4.8 km/h 69% 0.0 mm 355.00 W/m2
08:24 15.2 °C 9.3 °C 1026.6 hPa Calm     68% 0.0 mm 373.00 W/m2
08:29 15.4 °C 9.5 °C 1026.6 hPa Calm   1.6 km/h 68% 0.0 mm 388.00 W/m2
08:34 15.6 °C 9.5 °C 1026.6 hPa ESE 4.8 km/h 4.8 km/h 67% 0.0 mm 403.00 W/m2
08:39 16.0 °C 9.4 °C 1026.6 hPa Calm     65% 0.0 mm 418.00 W/m2
08:44 16.1 °C 8.8 °C 1026.6 hPa Calm   3.2 km/h 62% 0.0 mm 432.00 W/m2
08:49 16.3 °C 9.7 °C 1026.6 hPa Calm   4.8 km/h 65% 0.0 mm 446.00 W/m2
08:54 17.1 °C 10.0 °C 1026.6 hPa Calm   1.6 km/h 63% 0.0 mm 459.00 W/m2
08:59 17.5 °C 9.9 °C 1026.6 hPa Calm     61% 0.0 mm 471.00 W/m2
09:04 17.5 °C 9.6 °C 1026.6 hPa ESE 1.4 km/h 3.2 km/h 60% 0.0 mm 483.00 W/m2
09:09 17.3 °C 9.7 °C 1026.6 hPa Calm   3.2 km/h 61% 0.0 mm 496.00 W/m2
09:14 17.2 °C 9.4 °C 1026.6 hPa Calm     60% 0.0 mm 508.00 W/m2
09:19 17.5 °C 9.4 °C 1026.6 hPa Calm   1.6 km/h 59% 0.0 mm 517.00 W/m2
09:24 17.9 °C 9.8 °C 1026.6 hPa Calm   3.2 km/h 59% 0.0 mm 531.00 W/m2
09:29 18.1 °C 9.7 °C 1026.6 hPa East 4.8 km/h 4.8 km/h 58% 0.0 mm 538.00 W/m2
09:34 17.9 °C 9.5 °C 1026.6 hPa Calm     58% 0.0 mm 548.00 W/m2
09:39 17.9 °C 9.0 °C 1026.6 hPa ESE 4.7 km/h 8.0 km/h 56% 0.0 mm 563.00 W/m2
09:44 18.0 °C 9.6 °C 1026.6 hPa SSE 3.2 km/h 4.8 km/h 58% 0.0 mm 577.00 W/m2
09:49 18.8 °C 9.8 °C 1026.6 hPa Calm   1.6 km/h 56% 0.0 mm 587.00 W/m2
09:54 18.8 °C 9.8 °C 1026.6 hPa SSE 3.2 km/h 4.8 km/h 56% 0.0 mm 598.00 W/m2
09:59 18.8 °C 10.1 °C 1026.6 hPa SSE 3.2 km/h 4.8 km/h 57% 0.0 mm 605.00 W/m2
10:04 19.4 °C 10.1 °C 1026.6 hPa Calm   1.6 km/h 55% 0.0 mm 617.00 W/m2
10:09 18.8 °C 9.8 °C 1026.6 hPa Calm     56% 0.0 mm 624.00 W/m2
10:14 19.2 °C 9.9 °C 1026.3 hPa SSE 3.2 km/h 3.2 km/h 55% 0.0 mm 640.00 W/m2
10:19 18.9 °C 10.2 °C 1026.3 hPa SSE 3.2 km/h 3.2 km/h 57% 0.0 mm 636.00 W/m2
10:24 19.0 °C 10.0 °C 1026.3 hPa Calm   6.4 km/h 56% 0.0 mm 659.00 W/m2
10:29 19.5 °C 10.2 °C 1026.3 hPa SSE 3.2 km/h 6.4 km/h 55% 0.0 mm 671.00 W/m2
10:34 19.8 °C 10.5 °C 1026.3 hPa SSE 1.4 km/h 1.6 km/h 55% 0.0 mm 647.00 W/m2
10:39 19.7 °C 10.4 °C 1026.3 hPa SSE 3.2 km/h 3.2 km/h 55% 0.0 mm 687.00 W/m2
10:44 19.8 °C 10.8 °C 1026.0 hPa Calm   4.8 km/h 56% 0.0 mm 700.00 W/m2
10:49 19.6 °C 10.3 °C 1026.0 hPa Calm   9.7 km/h 55% 0.0 mm 693.00 W/m2
10:54 19.9 °C 10.6 °C 1026.0 hPa SSE 4.7 km/h 8.0 km/h 55% 0.0 mm 708.00 W/m2
10:59 20.1 °C 10.5 °C 1026.0 hPa SSW 6.4 km/h 9.7 km/h 54% 0.0 mm 728.00 W/m2
11:04 20.0 °C 11.0 °C 1026.0 hPa SSW 4.7 km/h 8.0 km/h 56% 0.0 mm 731.00 W/m2
11:09 19.7 °C 10.4 °C 1026.0 hPa SSW 6.4 km/h 8.0 km/h 55% 0.0 mm 735.00 W/m2
11:14 20.0 °C 11.0 °C 1025.6 hPa SSW 1.4 km/h 1.6 km/h 56% 0.0 mm 731.00 W/m2
11:19 20.4 °C 11.1 °C 1025.6 hPa SSW 7.9 km/h 9.7 km/h 55% 0.0 mm 756.00 W/m2
11:24 20.7 °C 10.8 °C 1025.6 hPa Calm   3.2 km/h 53% 0.0 mm 710.00 W/m2
11:29 20.9 °C 11.2 °C 1025.6 hPa NNE 1.4 km/h 14.5 km/h 54% 0.0 mm 744.00 W/m2
11:34 21.0 °C 10.8 °C 1025.6 hPa NE 6.4 km/h 8.0 km/h 52% 0.0 mm 779.00 W/m2
11:39 20.8 °C 11.2 °C 1025.6 hPa East 1.4 km/h 4.8 km/h 54% 0.0 mm 777.00 W/m2
11:44 21.7 °C 11.4 °C 1025.6 hPa SE 1.4 km/h 8.0 km/h 52% 0.0 mm 758.00 W/m2
11:49 21.9 °C 11.3 °C 1025.6 hPa SSE 3.2 km/h 4.8 km/h 51% 0.0 mm 782.00 W/m2
11:54 21.3 °C 11.3 °C 1025.6 hPa SSW 1.4 km/h 3.2 km/h 53% 0.0 mm 759.00 W/m2
11:59 21.2 °C 11.2 °C 1025.6 hPa SSW 1.4 km/h 6.4 km/h 53% 0.0 mm 796.00 W/m2
12:04 21.9 °C 11.6 °C 1025.3 hPa SSW 3.2 km/h 3.2 km/h 52% 0.0 mm 821.00 W/m2
12:09 22.4 °C 11.8 °C 1025.3 hPa SSE 3.2 km/h 8.0 km/h 51% 0.0 mm 819.00 W/m2
12:14 22.7 °C 11.7 °C 1025.3 hPa SSE 1.4 km/h 3.2 km/h 50% 0.0 mm 823.00 W/m2
12:19 23.1 °C 11.5 °C 1025.3 hPa SSE 1.4 km/h 6.4 km/h 48% 0.0 mm 826.00 W/m2
12:24 22.7 °C 11.4 °C 1025.3 hPa SSE 1.4 km/h 4.8 km/h 49% 0.0 mm 828.00 W/m2
12:29 22.0 °C 11.4 °C 1024.9 hPa SSW 3.2 km/h 6.4 km/h 51% 0.0 mm 837.00 W/m2
12:34 22.4 °C 11.8 °C 1024.9 hPa South 4.7 km/h 9.7 km/h 51% 0.0 mm 837.00 W/m2
12:39 22.9 °C 12.2 °C 1024.9 hPa Calm   4.8 km/h 51% 0.0 mm 840.00 W/m2
12:44 23.2 °C 11.9 °C 1024.9 hPa South 3.2 km/h 6.4 km/h 49% 0.0 mm 847.00 W/m2
12:49 22.7 °C 11.7 °C 1024.9 hPa NNE 6.4 km/h 11.3 km/h 50% 0.0 mm 851.00 W/m2
12:54 22.9 °C 12.2 °C 1024.9 hPa Calm   3.2 km/h 51% 0.0 mm 854.00 W/m2
12:59 23.9 °C 12.2 °C 1024.6 hPa Calm   9.7 km/h 48% 0.0 mm 860.00 W/m2
13:04 24.6 °C 12.9 °C 1024.6 hPa NNE 3.2 km/h 4.8 km/h 48% 0.0 mm 833.00 W/m2
13:09 23.5 °C 11.5 °C 1024.6 hPa Calm   8.0 km/h 47% 0.0 mm 865.00 W/m2
13:14 23.4 °C 12.1 °C 1024.6 hPa SW 11.3 km/h 11.3 km/h 49% 0.0 mm 867.00 W/m2
13:19 22.8 °C 12.1 °C 1024.3 hPa WNW 6.4 km/h 11.3 km/h 51% 0.0 mm 867.00 W/m2
13:24 22.2 °C 11.9 °C 1024.6 hPa West 6.4 km/h 14.5 km/h 52% 0.0 mm 851.00 W/m2
13:29 22.1 °C 11.8 °C 1024.6 hPa West 3.2 km/h 4.8 km/h 52% 0.0 mm 861.00 W/m2
13:34 22.2 °C 12.2 °C 1024.3 hPa West 6.4 km/h 11.3 km/h 53% 0.0 mm 856.00 W/m2
13:39 23.8 °C 12.8 °C 1024.3 hPa West 4.7 km/h 8.0 km/h 50% 0.0 mm 856.00 W/m2
13:44 23.1 °C 12.1 °C 1024.3 hPa SW 14.5 km/h 14.5 km/h 50% 0.0 mm 853.00 W/m2
13:49 22.8 °C 12.1 °C 1024.3 hPa West 4.7 km/h 12.9 km/h 51% 0.0 mm 856.00 W/m2
13:54 22.5 °C 12.4 °C 1023.9 hPa WNW 3.2 km/h 8.0 km/h 53% 0.0 mm 854.00 W/m2
13:59 23.4 °C 12.7 °C 1023.9 hPa WSW 1.4 km/h 8.0 km/h 51% 0.0 mm 851.00 W/m2
14:04 23.0 °C 12.3 °C 1023.9 hPa WNW 4.7 km/h 11.3 km/h 51% 0.0 mm 860.00 W/m2
14:09 23.3 °C 12.6 °C 1023.9 hPa NW 11.1 km/h 14.5 km/h 51% 0.0 mm 865.00 W/m2
14:14 23.3 °C 12.6 °C 1023.9 hPa NNW 4.7 km/h 6.4 km/h 51% 0.0 mm 875.00 W/m2
14:19 23.2 °C 12.8 °C 1023.6 hPa NNW 7.9 km/h 8.0 km/h 52% 0.0 mm 830.00 W/m2
14:24 23.8 °C 13.1 °C 1023.6 hPa Calm   3.2 km/h 51% 0.0 mm 747.00 W/m2
14:29 23.5 °C 12.8 °C 1023.6 hPa NW 6.4 km/h 9.7 km/h 51% 0.0 mm 851.00 W/m2
14:34 23.6 °C 12.6 °C 1023.6 hPa WNW 9.7 km/h 11.3 km/h 50% 0.0 mm 626.00 W/m2
14:39 23.5 °C 12.8 °C 1023.6 hPa WNW 1.4 km/h 1.6 km/h 51% 0.0 mm 770.00 W/m2
14:44 23.6 °C 12.6 °C 1023.6 hPa West 9.7 km/h 12.9 km/h 50% 0.0 mm 819.00 W/m2
14:49 23.8 °C 12.8 °C 1023.6 hPa West 1.4 km/h 4.8 km/h 50% 0.0 mm 826.00 W/m2
14:54 24.2 °C 12.8 °C 1023.6 hPa West 1.4 km/h 9.7 km/h 49% 0.0 mm 821.00 W/m2
14:59 24.0 °C 12.6 °C 1023.6 hPa West 6.4 km/h 8.0 km/h 49% 0.0 mm 817.00 W/m2
15:04 23.9 °C 12.2 °C 1023.2 hPa WSW 12.9 km/h 12.9 km/h 48% 0.0 mm 814.00 W/m2
15:09 23.6 °C 12.6 °C 1023.2 hPa WNW 3.2 km/h 12.9 km/h 50% 0.0 mm 802.00 W/m2
15:14 23.7 °C 12.4 °C 1023.2 hPa WNW 1.4 km/h 8.0 km/h 49% 0.0 mm 795.00 W/m2
15:19 24.2 °C 12.2 °C 1023.2 hPa WNW 1.4 km/h 12.9 km/h 47% 0.0 mm 766.00 W/m2
15:24 24.3 °C 12.3 °C 1023.2 hPa NW 1.4 km/h 6.4 km/h 47% 0.0 mm 759.00 W/m2
15:29 24.8 °C 12.1 °C 1022.9 hPa NW 11.1 km/h 14.5 km/h 45% 0.0 mm 721.00 W/m2
15:34 24.1 °C 12.1 °C 1023.2 hPa NW 3.2 km/h 12.9 km/h 47% 0.0 mm 694.00 W/m2
15:39 24.2 °C 12.5 °C 1022.9 hPa NW 1.4 km/h 8.0 km/h 48% 0.0 mm 684.00 W/m2
15:44 24.3 °C 12.3 °C 1022.9 hPa Calm   4.8 km/h 47% 0.0 mm 691.00 W/m2
15:49 24.4 °C 12.4 °C 1022.9 hPa NW 3.2 km/h 8.0 km/h 47% 0.0 mm 671.00 W/m2
15:54 24.5 °C 12.8 °C 1022.9 hPa NW 4.7 km/h 11.3 km/h 48% 0.0 mm 654.00 W/m2
15:59 24.3 °C 12.6 °C 1022.9 hPa West 9.7 km/h 14.5 km/h 48% 0.0 mm 710.00 W/m2
16:04 24.3 °C 12.9 °C 1022.9 hPa West 3.2 km/h 6.4 km/h 49% 0.0 mm 700.00 W/m2
16:09 24.3 °C 12.6 °C 1022.9 hPa West 6.4 km/h 9.7 km/h 48% 0.0 mm 707.00 W/m2
16:14 24.3 °C 13.2 °C 1022.9 hPa NW 3.2 km/h 11.3 km/h 50% 0.0 mm 700.00 W/m2
16:19 24.2 °C 13.4 °C 1022.9 hPa NW 4.7 km/h 4.8 km/h 51% 0.0 mm 682.00 W/m2
16:24 24.2 °C 13.1 °C 1022.6 hPa NW 6.4 km/h 9.7 km/h 50% 0.0 mm 689.00 W/m2
16:29 24.2 °C 13.4 °C 1022.6 hPa WNW 3.2 km/h 14.5 km/h 51% 0.0 mm 691.00 W/m2
16:34 24.4 °C 13.3 °C 1022.6 hPa WNW 6.4 km/h 11.3 km/h 50% 0.0 mm 668.00 W/m2
16:39 24.6 °C 13.5 °C 1022.6 hPa West 12.9 km/h 12.9 km/h 50% 0.0 mm 663.00 W/m2
16:44 24.4 °C 13.9 °C 1022.6 hPa WNW 4.7 km/h 12.9 km/h 52% 0.0 mm 645.00 W/m2
16:49 24.5 °C 13.7 °C 1022.6 hPa NW 4.7 km/h 14.5 km/h 51% 0.0 mm 612.00 W/m2
16:54 24.4 °C 13.6 °C 1022.6 hPa NNW 6.4 km/h 8.0 km/h 51% 0.0 mm 589.00 W/m2
16:59 24.3 °C 13.2 °C 1022.2 hPa NNW 9.7 km/h 11.3 km/h 50% 0.0 mm 522.00 W/m2
17:04 24.3 °C 13.2 °C 1022.2 hPa Calm   1.6 km/h 50% 0.0 mm 445.00 W/m2
17:09 24.4 °C 13.6 °C 1022.2 hPa WNW 14.5 km/h 14.5 km/h 51% 0.0 mm 350.00 W/m2
17:14 24.3 °C 13.2 °C 1022.2 hPa NW 3.2 km/h 11.3 km/h 50% 0.0 mm 462.00 W/m2
17:19 24.2 °C 13.1 °C 1022.2 hPa WNW 7.9 km/h 9.7 km/h 50% 0.0 mm 422.00 W/m2
17:24 24.1 °C 13.0 °C 1022.2 hPa WNW 9.7 km/h 11.3 km/h 50% 0.0 mm 318.00 W/m2
17:29 23.7 °C 12.7 °C 1022.2 hPa NW 3.2 km/h 12.9 km/h 50% 0.0 mm 308.00 W/m2
17:34 23.5 °C 12.5 °C 1022.2 hPa NW 6.4 km/h 11.3 km/h 50% 0.0 mm 352.00 W/m2
17:39 23.5 °C 12.2 °C 1022.2 hPa NW 7.9 km/h 9.7 km/h 49% 0.0 mm 330.00 W/m2
17:44 23.5 °C 12.2 °C 1022.2 hPa NW 14.5 km/h 14.5 km/h 49% 0.0 mm 388.00 W/m2
17:49 23.7 °C 12.0 °C 1022.2 hPa NW 3.2 km/h 9.7 km/h 48% 0.0 mm 566.00 W/m2
17:54 24.0 °C 12.3 °C 1021.9 hPa NW 9.7 km/h 9.7 km/h 48% 0.0 mm 543.00 W/m2
17:59 24.2 °C 11.8 °C 1021.9 hPa WSW 14.5 km/h 14.5 km/h 46% 0.0 mm 482.00 W/m2
18:04 24.5 °C 12.1 °C 1021.9 hPa WSW 1.4 km/h 8.0 km/h 46% 0.0 mm 478.00 W/m2
18:09 24.5 °C 11.8 °C 1021.9 hPa WSW 4.7 km/h 8.0 km/h 45% 0.0 mm 415.00 W/m2
18:14 24.1 °C 11.4 °C 1021.9 hPa West 7.9 km/h 14.5 km/h 45% 0.0 mm 304.00 W/m2
18:19 23.9 °C 11.6 °C 1021.9 hPa West 3.2 km/h 8.0 km/h 46% 0.0 mm 388.00 W/m2
18:24 24.2 °C 11.5 °C 1021.9 hPa West 4.7 km/h 9.7 km/h 45% 0.0 mm 383.00 W/m2
18:29 24.0 °C 11.0 °C 1021.9 hPa West 3.2 km/h 9.7 km/h 44% 0.0 mm 383.00 W/m2
18:34 24.2 °C 11.5 °C 1021.6 hPa West 6.4 km/h 8.0 km/h 45% 0.0 mm 392.00 W/m2
18:39 24.2 °C 10.8 °C 1021.6 hPa West 6.4 km/h 14.5 km/h 43% 0.0 mm 360.00 W/m2
18:44 24.2 °C 10.8 °C 1021.6 hPa West 7.9 km/h 11.3 km/h 43% 0.0 mm 362.00 W/m2
18:49 24.0 °C 10.3 °C 1021.6 hPa West 11.1 km/h 11.3 km/h 42% 0.0 mm 325.00 W/m2
18:54 24.0 °C 10.3 °C 1021.6 hPa West 4.7 km/h 11.3 km/h 42% 0.0 mm 299.00 W/m2
18:59 23.8 °C 9.8 °C 1021.6 hPa WSW 7.9 km/h 11.3 km/h 41% 0.0 mm 322.00 W/m2
19:04 23.7 °C 10.0 °C 1021.6 hPa WSW 7.9 km/h 9.7 km/h 42% 0.0 mm 297.00 W/m2
19:09 24.0 °C 9.9 °C 1021.6 hPa WSW 1.4 km/h 9.7 km/h 41% 0.0 mm 288.00 W/m2
19:14 24.3 °C 10.2 °C 1021.6 hPa West 1.4 km/h 11.3 km/h 41% 0.0 mm 274.00 W/m2
19:19 24.2 °C 10.1 °C 1021.6 hPa WNW 9.7 km/h 14.5 km/h 41% 0.0 mm 251.00 W/m2
19:24 23.5 °C 10.2 °C 1021.6 hPa WNW 9.7 km/h 12.9 km/h 43% 0.0 mm 225.00 W/m2
19:29 23.5 °C 11.5 °C 1021.6 hPa WNW 7.9 km/h 12.9 km/h 47% 0.0 mm 218.00 W/m2
19:34 23.1 °C 12.4 °C 1021.6 hPa WNW 6.4 km/h 14.5 km/h 51% 0.0 mm 171.00 W/m2
19:39 22.7 °C 12.3 °C 1021.6 hPa West 13.0 km/h 14.5 km/h 52% 0.0 mm 125.00 W/m2
19:44 22.5 °C 12.4 °C 1021.6 hPa West 4.7 km/h 9.7 km/h 53% 0.0 mm 128.00 W/m2
19:49 22.5 °C 12.2 °C 1021.6 hPa West 6.4 km/h 11.3 km/h 52% 0.0 mm 144.00 W/m2
19:54 22.5 °C 12.2 °C 1021.6 hPa West 9.7 km/h 12.9 km/h 52% 0.0 mm 105.00 W/m2
19:59 22.4 °C 12.1 °C 1021.6 hPa West 6.4 km/h 8.0 km/h 52% 0.0 mm 62.00 W/m2
20:04 22.2 °C 11.9 °C 1021.6 hPa West 6.4 km/h 9.7 km/h 52% 0.0 mm 63.00 W/m2
20:09 22.0 °C 11.7 °C 1021.6 hPa West 6.4 km/h 9.7 km/h 52% 0.0 mm 72.00 W/m2
20:14 21.9 °C 11.6 °C 1021.6 hPa West 4.7 km/h 12.9 km/h 52% 0.0 mm 77.00 W/m2
20:19 21.9 °C 11.6 °C 1021.6 hPa West 1.4 km/h 11.3 km/h 52% 0.0 mm 69.00 W/m2
20:24 21.7 °C 11.7 °C 1021.2 hPa West 13.0 km/h 12.9 km/h 53% 0.0 mm 46.00 W/m2
20:29 21.2 °C 11.5 °C 1021.2 hPa West 7.9 km/h 9.7 km/h 54% 0.0 mm 33.00 W/m2
20:34 20.9 °C 11.5 °C 1021.2 hPa West 4.7 km/h 11.3 km/h 55% 0.0 mm 28.00 W/m2
20:39 20.6 °C 11.8 °C 1021.2 hPa West 4.7 km/h 9.7 km/h 57% 0.0 mm 26.00 W/m2
20:44 20.4 °C 11.6 °C 1021.6 hPa West 6.4 km/h 8.0 km/h 57% 0.0 mm 26.00 W/m2
20:49 20.1 °C 11.6 °C 1021.6 hPa West 4.7 km/h 11.3 km/h 58% 0.0 mm 23.00 W/m2
20:54 19.8 °C 11.3 °C 1021.6 hPa West 1.4 km/h 8.0 km/h 58% 0.0 mm 18.00 W/m2
20:59 19.7 °C 11.2 °C 1021.2 hPa West 4.7 km/h 4.8 km/h 58% 0.0 mm 11.00 W/m2
21:04 19.4 °C 10.9 °C 1021.2 hPa West 4.7 km/h 11.3 km/h 58% 0.0 mm 7.00 W/m2
21:09 19.2 °C 11.0 °C 1021.2 hPa West 4.7 km/h 11.3 km/h 59% 0.0 mm 5.00 W/m2
21:14 19.0 °C 11.1 °C 1021.2 hPa West 7.9 km/h 9.7 km/h 60% 0.0 mm 0.00 W/m2
21:19 18.8 °C 11.1 °C 1021.2 hPa West 4.7 km/h 8.0 km/h 61% 0.0 mm 0.00 W/m2
21:24 18.7 °C 11.3 °C 1021.6 hPa West 1.4 km/h 8.0 km/h 62% 0.0 mm 0.00 W/m2
21:29 18.5 °C 11.3 °C 1021.6 hPa West 1.4 km/h 6.4 km/h 63% 0.0 mm 0.00 W/m2
21:34 18.4 °C 11.5 °C 1021.6 hPa Calm   4.8 km/h 64% 0.0 mm 0.00 W/m2
21:39 18.3 °C 11.6 °C 1021.6 hPa West 7.9 km/h 8.0 km/h 65% 0.0 mm 0.00 W/m2
21:44 18.2 °C 11.7 °C 1021.6 hPa West 3.2 km/h 6.4 km/h 66% 0.0 mm 0.00 W/m2
21:49 18.1 °C 11.9 °C 1021.6 hPa West 1.4 km/h 4.8 km/h 67% 0.0 mm 0.00 W/m2
21:54 18.1 °C 11.9 °C 1021.6 hPa Calm   4.8 km/h 67% 0.0 mm 0.00 W/m2
21:59 18.0 °C 11.8 °C 1021.6 hPa West 3.2 km/h 4.8 km/h 67% 0.0 mm 0.00 W/m2
22:04 17.9 °C 11.9 °C 1021.6 hPa West 1.4 km/h 8.0 km/h 68% 0.0 mm 0.00 W/m2
22:09 17.7 °C 11.9 °C 1021.6 hPa Calm   4.8 km/h 69% 0.0 mm 0.00 W/m2
22:14 17.7 °C 11.7 °C 1021.6 hPa Calm   4.8 km/h 68% 0.0 mm 0.00 W/m2
22:19 17.5 °C 11.5 °C 1021.6 hPa Calm   3.2 km/h 68% 0.0 mm 0.00 W/m2
22:24 17.5 °C 11.5 °C 1021.6 hPa Calm   3.2 km/h 68% 0.0 mm 0.00 W/m2
22:29 17.4 °C 11.4 °C 1021.2 hPa Calm   3.2 km/h 68% 0.0 mm 0.00 W/m2
22:34 17.4 °C 11.4 °C 1021.6 hPa West 1.4 km/h 1.6 km/h 68% 0.0 mm 0.00 W/m2
22:39 17.5 °C 11.5 °C 1021.2 hPa Calm     68% 0.0 mm 0.00 W/m2
22:44 17.5 °C 11.5 °C 1021.6 hPa West 3.2 km/h 3.2 km/h 68% 0.0 mm 0.00 W/m2
22:49 17.4 °C 11.4 °C 1021.6 hPa West 1.4 km/h 1.6 km/h 68% 0.0 mm 0.00 W/m2
22:54 17.4 °C 11.7 °C 1021.2 hPa Calm     69% 0.0 mm 0.00 W/m2
22:59 17.4 °C 11.7 °C 1021.6 hPa Calm   1.6 km/h 69% 0.0 mm 0.00 W/m2
23:04 17.4 °C 11.9 °C 1021.2 hPa Calm   1.6 km/h 70% 0.0 mm 0.00 W/m2
23:09 17.3 °C 11.8 °C 1021.2 hPa Calm   3.2 km/h 70% 0.0 mm 0.00 W/m2
23:14 17.2 °C 11.9 °C 1021.6 hPa Calm     71% 0.0 mm 0.00 W/m2
23:19 17.0 °C 11.7 °C 1021.6 hPa Calm     71% 0.0 mm 0.00 W/m2
23:24 16.9 °C 11.6 °C 1021.6 hPa Calm     71% 0.0 mm 0.00 W/m2
23:29 16.9 °C 11.6 °C 1021.6 hPa Calm     71% 0.0 mm 0.00 W/m2
23:34 16.7 °C 11.6 °C 1021.6 hPa Calm     72% 0.0 mm 0.00 W/m2
23:39 16.7 °C 11.6 °C 1021.6 hPa Calm     72% 0.0 mm 0.00 W/m2
23:44 16.6 °C 11.5 °C 1021.6 hPa Calm     72% 0.0 mm 0.00 W/m2
23:49 16.4 °C 11.3 °C 1021.6 hPa Calm     72% 0.0 mm 0.00 W/m2
23:54 16.4 °C 11.5 °C 1021.6 hPa Calm     73% 0.0 mm 0.00 W/m2
23:59 16.3 °C 11.5 °C 1021.6 hPa Calm     73% 0.0 mm 0.00 W/m2